Time;durP1;ratioP1;P1;durP2;ratioP2;P2;SDS_P1;SDS_P2;PMS_P1;PMS_P2;Temp;Humidity;BMP_temperature;BMP_pressure;BME280_temperature;BME280_humidity;BME280_pressure;Samples;Min_cycle;Max_cycle;Signal;HPM_P1;HPM_P2
2022/03/15 00:00:27;;;;;;;4.75;1.25;;;25.30;75.60;;;;;;5067318;28;20377;-82
2022/03/15 00:02:56;;;;;;;5.60;1.20;;;25.30;77.40;;;;;;5067196;28;20403;-83
2022/03/15 00:05:23;;;;;;;5.90;1.20;;;25.40;74.40;;;;;;5067262;28;20370;-82
2022/03/15 00:07:50;;;;;;;5.10;1.05;;;25.40;74.20;;;;;;5067186;28;20402;-81
2022/03/15 00:10:18;;;;;;;3.13;0.90;;;25.30;74.80;;;;;;5067180;28;20459;-82
2022/03/15 00:12:46;;;;;;;3.47;0.90;;;25.30;73.00;;;;;;5067220;28;20427;-79
2022/03/15 00:15:14;;;;;;;3.35;0.90;;;25.60;69.80;;;;;;5066845;28;20382;-83
2022/03/15 00:17:42;;;;;;;4.85;1.00;;;25.80;68.60;;;;;;5048920;28;20390;-81
2022/03/15 00:20:14;;;;;;;4.78;1.10;;;25.90;69.30;;;;;;5066921;28;20386;-82
2022/03/15 00:22:42;;;;;;;4.43;0.90;;;25.80;68.70;;;;;;5067023;28;20375;-82
2022/03/15 00:25:11;;;;;;;3.37;1.00;;;25.60;68.40;;;;;;5066754;28;20389;-83
2022/03/15 00:27:39;;;;;;;3.90;0.80;;;25.60;67.70;;;;;;5066957;28;20369;-81
2022/03/15 00:30:07;;;;;;;4.38;0.98;;;25.80;67.40;;;;;;5066743;28;20931;-82
2022/03/15 00:32:37;;;;;;;7.13;1.00;;;26.00;65.30;;;;;;5066908;28;20394;-83
2022/03/15 00:35:16;;;;;;;5.25;1.02;;;26.10;66.60;;;;;;5066710;28;20381;-82
2022/03/15 00:37:43;;;;;;;4.38;1.10;;;26.10;68.80;;;;;;5066706;28;20374;-83
2022/03/15 00:40:12;;;;;;;4.38;1.00;;;26.20;67.90;;;;;;5066650;28;20459;-82
2022/03/15 00:42:39;;;;;;;4.63;1.10;;;26.00;67.70;;;;;;5066706;28;20370;-83
2022/03/15 00:45:08;;;;;;;4.38;0.80;;;26.10;64.20;;;;;;5066879;28;20378;-80
2022/03/15 00:47:35;;;;;;;2.92;0.93;;;26.20;63.60;;;;;;5066738;28;20742;-80
2022/03/15 00:50:02;;;;;;;3.60;1.00;;;26.20;63.30;;;;;;5066905;28;20888;-83
2022/03/15 00:52:29;;;;;;;4.55;0.90;;;26.30;63.00;;;;;;5066626;28;20895;-81
2022/03/15 00:54:56;;;;;;;3.70;0.88;;;26.40;63.50;;;;;;5067709;28;20771;-83
2022/03/15 00:57:23;;;;;;;3.65;0.98;;;26.40;61.60;;;;;;5071088;28;20733;-83
2022/03/15 00:59:50;;;;;;;4.20;0.90;;;26.70;61.00;;;;;;5070950;28;20386;-81
2022/03/15 01:02:17;;;;;;;2.35;0.82;;;26.50;60.50;;;;;;5070603;28;20392;-83
2022/03/15 01:04:44;;;;;;;3.50;0.85;;;26.60;60.20;;;;;;5070797;28;20385;-80
2022/03/15 01:07:12;;;;;;;4.25;0.90;;;26.60;60.20;;;;;;5070470;28;20892;-79
2022/03/15 01:09:40;;;;;;;3.45;1.00;;;26.70;60.10;;;;;;5070619;28;20708;-81
2022/03/15 01:12:07;;;;;;;4.32;0.75;;;26.90;59.20;;;;;;5070742;28;20385;-79
2022/03/15 01:14:35;;;;;;;2.47;1.00;;;27.20;58.00;;;;;;5070812;28;20389;-80
2022/03/15 01:17:04;;;;;;;2.43;0.80;;;27.20;58.90;;;;;;5070558;28;20415;-84
2022/03/15 01:19:31;;;;;;;3.03;0.88;;;27.20;57.70;;;;;;5070284;28;20401;-80
2022/03/15 01:21:59;;;;;;;4.03;0.80;;;27.30;56.40;;;;;;5073265;28;20405;-82
2022/03/15 01:24:27;;;;;;;3.00;0.90;;;27.40;54.80;;;;;;5055948;28;20416;-82
2022/03/15 01:26:54;;;;;;;3.63;1.00;;;27.60;54.30;;;;;;5070878;28;20386;-81
2022/03/15 01:29:24;;;;;;;4.07;0.90;;;27.80;55.60;;;;;;5070847;28;20373;-80
2022/03/15 01:31:51;;;;;;;2.35;0.88;;;27.60;55.40;;;;;;5052488;28;20382;-80
2022/03/15 01:34:20;;;;;;;3.78;0.85;;;27.50;54.80;;;;;;5070208;28;20373;-81
2022/03/15 01:36:46;;;;;;;4.50;1.00;;;27.60;55.20;;;;;;5070183;28;20381;-81
2022/03/15 01:39:13;;;;;;;4.57;0.93;;;27.90;52.70;;;;;;5070375;28;20405;-82
2022/03/15 01:41:41;;;;;;;3.42;0.90;;;27.90;53.60;;;;;;5070174;28;20400;-80
2022/03/15 01:44:23;;;;;;;5.20;1.05;;;28.00;56.10;;;;;;5070023;28;20449;-81
2022/03/15 01:46:51;;;;;;;3.15;1.10;;;28.70;54.90;;;;;;5070066;28;20408;-83
2022/03/15 01:49:18;;;;;;;5.93;1.00;;;29.50;51.80;;;;;;5070264;28;20378;-80
2022/03/15 01:51:46;;;;;;;4.93;1.10;;;29.60;52.30;;;;;;5069724;28;20423;-81
2022/03/15 01:54:15;;;;;;;2.67;0.98;;;30.00;51.60;;;;;;5069729;28;20385;-83
2022/03/15 01:56:42;;;;;;;3.45;1.08;;;30.50;49.90;;;;;;5069686;28;20435;-80
2022/03/15 01:59:11;;;;;;;3.37;1.10;;;31.00;49.30;;;;;;5069764;28;20406;-82
2022/03/15 02:01:42;;;;;;;4.05;1.00;;;31.20;48.90;;;;;;5069635;28;20703;-80
2022/03/15 02:04:09;;;;;;;3.77;1.00;;;31.20;48.40;;;;;;5069579;28;21219;-81
2022/03/15 02:06:38;;;;;;;4.85;1.00;;;31.10;48.80;;;;;;5068152;28;20374;-80
2022/03/15 02:09:13;;;;;;;3.72;1.00;;;30.90;49.30;;;;;;5069473;28;20451;-83
2022/03/15 02:11:45;;;;;;;5.10;1.10;;;31.50;48.00;;;;;;5069304;28;20469;-79
2022/03/15 02:14:12;;;;;;;5.13;1.10;;;32.40;45.40;;;;;;5069158;28;20400;-80
2022/03/15 02:16:39;;;;;;;5.63;1.10;;;33.20;46.20;;;;;;5069336;28;20453;-82
2022/03/15 02:19:06;;;;;;;4.43;1.20;;;33.60;46.50;;;;;;5069339;28;20915;-81
2022/03/15 02:21:36;;;;;;;3.97;1.13;;;34.00;45.20;;;;;;5069154;28;20382;-83
2022/03/15 02:24:04;;;;;;;4.57;1.20;;;34.40;44.60;;;;;;5069459;28;20366;-82
2022/03/15 02:26:32;;;;;;;4.93;1.20;;;34.70;43.50;;;;;;5069196;28;20432;-81
2022/03/15 02:28:59;;;;;;;3.03;1.08;;;34.70;43.90;;;;;;5069108;28;20388;-82
2022/03/15 02:31:26;;;;;;;5.22;1.10;;;34.10;43.30;;;;;;5069266;28;20374;-83
2022/03/15 02:33:53;;;;;;;2.95;1.00;;;34.20;43.80;;;;;;5069351;28;20431;-81
2022/03/15 02:36:20;;;;;;;5.03;1.10;;;34.30;42.80;;;;;;5069261;28;20367;-82
2022/03/15 02:38:47;;;;;;;4.00;1.10;;;34.90;42.10;;;;;;5068909;28;20405;-83
2022/03/15 02:41:15;;;;;;;6.15;1.30;;;35.20;41.90;;;;;;5068944;28;20473;-81
2022/03/15 02:43:44;;;;;;;4.53;1.10;;;34.10;43.60;;;;;;5069569;28;20392;-83
2022/03/15 02:46:12;;;;;;;5.13;1.30;;;33.30;45.40;;;;;;5069264;28;20857;-81
2022/03/15 02:48:40;;;;;;;5.43;1.30;;;32.10;46.60;;;;;;5068915;28;20401;-83
2022/03/15 02:51:10;;;;;;;5.03;1.30;;;30.80;47.90;;;;;;5068686;28;20461;-82
2022/03/15 02:53:38;;;;;;;5.68;1.30;;;29.90;50.40;;;;;;5069934;28;20380;-81
2022/03/15 02:56:12;;;;;;;13.85;7.60;;;29.70;51.90;;;;;;5050813;28;20454;-80
2022/03/15 02:58:40;;;;;;;16.67;10.75;;;30.20;53.50;;;;;;5068406;28;20389;-81
2022/03/15 03:01:08;;;;;;;6.30;1.63;;;31.90;51.70;;;;;;5068320;28;20874;-81
2022/03/15 03:03:36;;;;;;;6.43;1.60;;;33.20;49.50;;;;;;5050668;28;20473;-81
2022/03/15 03:06:04;;;;;;;5.70;1.40;;;31.90;50.70;;;;;;5068335;28;20378;-79
2022/03/15 03:08:33;;;;;;;7.82;1.50;;;30.20;53.60;;;;;;5068541;28;20369;-81
2022/03/15 03:11:00;;;;;;;6.20;1.45;;;29.10;56.20;;;;;;5068160;28;20378;-80
2022/03/15 03:13:28;;;;;;;5.17;1.43;;;28.90;57.00;;;;;;5068181;28;20375;-82
2022/03/15 03:15:58;;;;;;;4.70;1.30;;;28.50;58.20;;;;;;5068163;28;20417;-81
2022/03/15 03:18:28;;;;;;;6.05;1.45;;;28.40;58.50;;;;;;5067864;28;20406;-79
2022/03/15 03:20:55;;;;;;;4.47;1.40;;;28.00;59.80;;;;;;5068104;28;20374;-81
2022/03/15 03:23:22;;;;;;;6.05;1.27;;;27.70;60.30;;;;;;5068115;28;20385;-83
2022/03/15 03:25:49;;;;;;;6.53;1.50;;;27.80;60.90;;;;;;5068281;28;20730;-83
2022/03/15 03:28:17;;;;;;;7.47;1.70;;;27.90;60.70;;;;;;5067989;28;20386;-82
2022/03/15 03:30:46;;;;;;;5.30;1.40;;;27.60;61.60;;;;;;5068049;28;20388;-81
2022/03/15 03:33:21;;;;;;;6.05;1.70;;;27.80;61.00;;;;;;5067788;28;20872;-80
2022/03/15 03:35:51;;;;;;;5.63;1.50;;;28.90;58.90;;;;;;5068292;28;20734;-80
2022/03/15 03:38:18;;;;;;;3.85;1.20;;;30.20;57.00;;;;;;5067702;28;20866;-80
2022/03/15 03:40:46;;;;;;;7.45;1.40;;;31.70;54.00;;;;;;5067729;28;20390;-82
2022/03/15 03:43:13;;;;;;;5.85;1.40;;;32.70;51.60;;;;;;5083296;28;20499;-81
2022/03/15 03:45:40;;;;;;;4.97;1.33;;;32.90;50.20;;;;;;5049483;28;20473;-79
2022/03/15 03:48:07;;;;;;;6.10;1.42;;;31.80;51.80;;;;;;5067440;28;20423;-82
2022/03/15 03:50:36;;;;;;;4.00;1.40;;;31.70;52.80;;;;;;5067555;28;20377;-83
2022/03/15 03:53:06;;;;;;;4.38;1.38;;;32.00;51.30;;;;;;5067544;28;20370;-82
2022/03/15 03:55:34;;;;;;;4.85;1.40;;;31.90;50.80;;;;;;5067134;28;20366;-80
2022/03/15 03:58:01;;;;;;;5.40;1.40;;;31.40;51.80;;;;;;5067374;28;20398;-79
2022/03/15 04:00:29;;;;;;;4.10;1.20;;;30.90;52.10;;;;;;5067756;28;20375;-81
2022/03/15 04:03:00;;;;;;;5.20;1.20;;;31.30;51.70;;;;;;5067242;28;20465;-80
2022/03/15 04:05:33;;;;;;;6.60;1.60;;;31.30;50.80;;;;;;5067288;28;20400;-81
2022/03/15 04:08:00;;;;;;;8.50;1.60;;;30.40;52.30;;;;;;5067542;28;20453;-80
2022/03/15 04:10:30;;;;;;;5.00;1.30;;;29.40;54.40;;;;;;5067506;28;20389;-85
2022/03/15 04:12:57;;;;;;;6.47;1.27;;;29.10;54.90;;;;;;5067187;28;20391;-82
2022/03/15 04:15:24;;;;;;;5.82;1.40;;;30.30;54.40;;;;;;5067128;28;20877;-81
2022/03/15 04:17:52;;;;;;;4.35;1.42;;;31.40;52.20;;;;;;5067295;28;20915;-83
2022/03/15 04:20:19;;;;;;;4.90;1.60;;;32.10;50.00;;;;;;5067288;28;20400;-85
2022/03/15 04:22:46;;;;;;;3.95;1.30;;;32.80;49.40;;;;;;5067077;28;20449;-87
2022/03/15 04:25:14;;;;;;;5.30;1.10;;;33.50;47.10;;;;;;5066891;28;20805;-81
2022/03/15 04:27:41;;;;;;;5.27;1.23;;;34.00;45.60;;;;;;5064945;28;20385;-81
2022/03/15 04:30:08;;;;;;;4.07;1.05;;;34.40;45.80;;;;;;5048985;28;20406;-83
2022/03/15 04:32:35;;;;;;;4.10;1.10;;;34.50;45.00;;;;;;5046997;28;20419;-86
2022/03/15 04:35:03;;;;;;;3.60;1.20;;;34.70;45.00;;;;;;5046971;28;20470;-84
2022/03/15 04:37:30;;;;;;;3.55;1.08;;;34.40;46.70;;;;;;5048391;28;20410;-81
2022/03/15 04:39:58;;;;;;;4.22;1.20;;;34.40;46.50;;;;;;5047384;28;20446;-88
2022/03/15 04:42:25;;;;;;;3.30;1.00;;;33.60;46.10;;;;;;5048769;28;20390;-82
2022/03/15 04:44:52;;;;;;;4.45;1.15;;;32.10;46.70;;;;;;5048542;28;20471;-78
2022/03/15 04:47:19;;;;;;;5.88;1.10;;;31.20;49.20;;;;;;5049352;28;20394;-78
2022/03/15 04:49:46;;;;;;;5.67;1.30;;;31.70;49.10;;;;;;5048221;28;20376;-84
2022/03/15 04:52:13;;;;;;;5.70;1.50;;;33.10;47.20;;;;;;5029072;28;20749;-85
2022/03/15 04:54:40;;;;;;;4.85;1.20;;;34.20;46.40;;;;;;5053548;28;20386;-83
2022/03/15 04:57:07;;;;;;;4.60;1.40;;;33.80;46.20;;;;;;5067054;28;20370;-79
2022/03/15 04:59:34;;;;;;;3.67;1.40;;;33.10;47.20;;;;;;5067063;28;20393;-79
2022/03/15 05:02:01;;;;;;;3.77;1.13;;;32.30;48.80;;;;;;5066643;28;20371;-86
2022/03/15 05:04:28;;;;;;;4.68;1.38;;;32.50;49.40;;;;;;5066944;28;20386;-83
2022/03/15 05:06:55;;;;;;;4.75;1.30;;;32.60;49.40;;;;;;5067020;28;20944;-81
2022/03/15 05:09:22;;;;;;;9.50;1.40;;;32.60;49.30;;;;;;5067068;28;20394;-82
2022/03/15 05:11:49;;;;;;;4.67;1.33;;;32.50;49.90;;;;;;5067563;28;20386;-88
2022/03/15 05:14:16;;;;;;;4.55;1.25;;;32.50;49.90;;;;;;5067376;28;20474;-85
2022/03/15 05:16:44;;;;;;;5.03;1.30;;;32.60;49.80;;;;;;5067044;28;20373;-86
2022/03/15 05:19:12;;;;;;;4.50;1.20;;;32.40;49.80;;;;;;5066869;28;20433;-89
2022/03/15 05:21:39;;;;;;;4.53;1.38;;;32.20;51.50;;;;;;5067226;28;20404;-81
2022/03/15 05:24:06;;;;;;;4.78;1.30;;;32.30;52.20;;;;;;5067184;28;20424;-81
2022/03/15 05:26:34;;;;;;;10.45;1.58;;;32.00;51.80;;;;;;5046569;28;20379;-85
2022/03/15 05:29:00;;;;;;;4.80;1.27;;;31.50;52.20;;;;;;5053590;28;20378;-83
2022/03/15 05:31:29;;;;;;;4.25;1.38;;;31.40;51.80;;;;;;5046434;28;20375;-82
2022/03/15 05:33:56;;;;;;;5.10;1.30;;;31.10;52.60;;;;;;5046265;28;20851;-84
2022/03/15 05:36:25;;;;;;;5.20;1.20;;;31.30;51.70;;;;;;5062671;28;20448;-84
2022/03/15 05:38:53;;;;;;;4.55;1.30;;;31.20;52.60;;;;;;5046324;28;20403;-82
2022/03/15 05:41:20;;;;;;;5.15;1.40;;;31.60;51.40;;;;;;5047939;28;20375;-81
2022/03/15 05:43:47;;;;;;;3.50;1.30;;;31.40;51.50;;;;;;5050298;28;20380;-86
2022/03/15 05:46:14;;;;;;;8.18;1.40;;;31.40;51.90;;;;;;5050114;28;20380;-84
2022/03/15 05:48:41;;;;;;;5.03;1.30;;;31.00;52.90;;;;;;5058013;28;20399;-84
2022/03/15 05:51:08;;;;;;;4.72;1.52;;;30.60;54.20;;;;;;5069355;28;20430;-79
2022/03/15 05:53:35;;;;;;;6.40;1.52;;;30.50;54.80;;;;;;5069991;28;20371;-81
2022/03/15 05:56:02;;;;;;;4.32;1.15;;;30.60;54.90;;;;;;5069138;28;20520;-79
2022/03/15 05:58:29;;;;;;;3.70;1.23;;;30.70;54.10;;;;;;5067200;28;21079;-80
2022/03/15 06:00:56;;;;;;;5.85;1.40;;;30.50;54.20;;;;;;5061630;28;20412;-88
2022/03/15 06:03:23;;;;;;;5.28;1.33;;;29.20;55.90;;;;;;5064485;28;20482;-78
2022/03/15 06:05:52;;;;;;;6.70;1.40;;;28.50;57.70;;;;;;5049487;28;20372;-77
2022/03/15 06:08:19;;;;;;;4.43;1.20;;;28.40;58.60;;;;;;5065547;28;20816;-84
2022/03/15 06:10:49;;;;;;;5.15;1.35;;;29.00;58.30;;;;;;5069750;28;20447;-81
2022/03/15 06:13:16;;;;;;;5.00;1.40;;;30.00;56.10;;;;;;5070021;28;20836;-79
2022/03/15 06:15:43;;;;;;;5.95;1.45;;;30.80;54.40;;;;;;5069358;28;20382;-81
2022/03/15 06:18:10;;;;;;;5.45;1.30;;;31.40;53.10;;;;;;5068668;28;20397;-80
2022/03/15 06:20:37;;;;;;;5.50;1.40;;;31.80;51.70;;;;;;5068999;28;20473;-86
2022/03/15 06:23:04;;;;;;;4.13;1.20;;;31.20;52.20;;;;;;5069427;28;20366;-84
2022/03/15 06:25:32;;;;;;;6.20;1.30;;;30.30;53.40;;;;;;5068369;28;20402;-81
2022/03/15 06:27:59;;;;;;;6.60;1.45;;;29.40;55.70;;;;;;5068350;28;20397;-80
2022/03/15 06:30:27;;;;;;;5.70;1.38;;;28.40;57.50;;;;;;5052350;28;20387;-82
2022/03/15 06:32:54;;;;;;;4.60;1.35;;;28.00;58.80;;;;;;5052839;28;20385;-86
2022/03/15 06:35:22;;;;;;;5.57;1.20;;;27.70;59.70;;;;;;5065239;28;20462;-80
2022/03/15 06:37:50;;;;;;;7.30;1.40;;;27.40;60.20;;;;;;5067495;28;20390;-82
2022/03/15 06:40:24;;;;;;;4.32;1.38;;;27.20;61.20;;;;;;5069963;28;20397;-84
2022/03/15 06:42:52;;;;;;;5.82;1.30;;;26.90;62.10;;;;;;5067075;28;20387;-83
2022/03/15 06:45:20;;;;;;;4.80;1.23;;;27.00;62.20;;;;;;5069350;28;20397;-88
2022/03/15 06:47:47;;;;;;;5.60;1.27;;;27.10;61.60;;;;;;5068789;28;20389;-77
2022/03/15 06:50:15;;;;;;;7.43;1.30;;;27.20;61.90;;;;;;5068841;28;20773;-87
2022/03/15 06:52:43;;;;;;;7.57;1.40;;;27.00;62.60;;;;;;5066914;28;20406;-76
2022/03/15 06:55:12;;;;;;;5.30;1.48;;;26.80;62.30;;;;;;5068131;28;20488;-79
2022/03/15 06:57:39;;;;;;;5.38;1.35;;;26.30;66.30;;;;;;5049643;28;20388;-77
2022/03/15 07:00:09;;;;;;;7.23;1.50;;;26.10;68.20;;;;;;5067085;28;20429;-79
2022/03/15 07:02:37;;;;;;;7.97;1.50;;;25.70;69.90;;;;;;5050629;28;20857;-84
2022/03/15 07:05:04;;;;;;;7.13;1.70;;;25.40;72.40;;;;;;5060922;28;20392;-78
2022/03/15 07:07:31;;;;;;;7.25;1.42;;;25.00;74.70;;;;;;5060390;28;20892;-86
2022/03/15 07:09:58;;;;;;;8.15;1.67;;;24.60;75.90;;;;;;5070185;28;20499;-78
2022/03/15 07:12:25;;;;;;;6.95;1.50;;;24.40;76.80;;;;;;5066000;28;20478;-86
2022/03/15 07:14:52;;;;;;;7.07;1.63;;;24.30;78.20;;;;;;5072866;28;20378;-85
2022/03/15 07:17:20;;;;;;;7.32;1.40;;;24.20;79.00;;;;;;5055803;28;20384;-79
2022/03/15 07:19:47;;;;;;;7.63;1.77;;;24.20;80.00;;;;;;5055569;28;20402;-77
2022/03/15 07:22:14;;;;;;;8.93;1.73;;;24.10;80.80;;;;;;5069317;28;20371;-80
2022/03/15 07:24:41;;;;;;;7.70;1.80;;;24.10;81.80;;;;;;5068929;28;20749;-80
2022/03/15 07:27:08;;;;;;;6.38;1.60;;;24.00;83.00;;;;;;5069501;28;20390;-74
2022/03/15 07:29:35;;;;;;;8.27;1.65;;;24.00;84.40;;;;;;5069208;28;20401;-80
2022/03/15 07:32:02;;;;;;;7.93;1.65;;;24.00;85.30;;;;;;5068834;28;20378;-93
2022/03/15 07:34:32;;;;;;;6.85;1.67;;;23.90;85.20;;;;;;5068329;28;20366;-83
2022/03/15 07:36:59;;;;;;;5.13;1.40;;;23.90;86.30;;;;;;5060408;28;20386;-85
2022/03/15 07:39:26;;;;;;;5.40;1.60;;;23.80;87.10;;;;;;5029781;28;20818;-83
2022/03/15 07:41:54;;;;;;;10.37;1.93;;;23.70;88.30;;;;;;5048425;28;20413;-86
2022/03/15 07:44:21;;;;;;;8.10;1.60;;;23.80;87.90;;;;;;5067355;28;20714;-86
2022/03/15 07:46:49;;;;;;;7.43;1.50;;;23.80;87.00;;;;;;5066609;28;20410;-89
2022/03/15 07:49:24;;;;;;;5.22;1.40;;;23.60;87.30;;;;;;5062976;28;20400;-77
2022/03/15 07:51:51;;;;;;;7.50;1.75;;;23.40;88.30;;;;;;5069774;28;20480;-94
2022/03/15 07:54:18;;;;;;;6.55;1.83;;;23.20;89.60;;;;;;5073829;28;20382;-81
2022/03/15 07:56:51;;;;;;;7.32;1.50;;;23.10;90.20;;;;;;5075084;28;20369;-78
2022/03/15 07:59:18;;;;;;;6.20;1.30;;;22.90;91.10;;;;;;5059006;28;20403;-76
2022/03/15 08:01:45;;;;;;;8.68;1.50;;;22.80;92.20;;;;;;5058277;28;20878;-80
2022/03/15 08:04:13;;;;;;;5.38;1.40;;;22.70;93.30;;;;;;5064354;28;20417;-84
2022/03/15 08:06:40;;;;;;;9.67;1.80;;;22.60;94.20;;;;;;5069896;28;20988;-83
2022/03/15 08:09:07;;;;;;;10.15;1.80;;;22.40;95.20;;;;;;5070351;28;20468;-84
2022/03/15 08:11:40;;;;;;;5.45;1.60;;;22.30;96.30;;;;;;5070459;28;20382;-84
2022/03/15 08:14:09;;;;;;;7.60;1.52;;;22.20;97.20;;;;;;5069809;28;20399;-80
2022/03/15 08:16:37;;;;;;;8.07;1.75;;;22.10;98.10;;;;;;5067882;28;20935;-83
2022/03/15 08:19:04;;;;;;;7.38;1.63;;;22.00;99.00;;;;;;5049065;28;20452;-80
2022/03/15 08:21:31;;;;;;;8.18;1.70;;;21.90;99.90;;;;;;5065267;28;20527;-78
2022/03/15 08:23:58;;;;;;;6.63;1.58;;;21.80;99.90;;;;;;5065050;28;20397;-81
2022/03/15 08:26:25;;;;;;;8.03;1.60;;;21.80;99.90;;;;;;5065392;28;20870;-78
2022/03/15 08:28:52;;;;;;;6.47;1.80;;;21.70;99.90;;;;;;5066655;28;20422;-78
2022/03/15 08:31:20;;;;;;;7.60;1.57;;;21.60;99.90;;;;;;5066108;28;20374;-82
2022/03/15 08:33:47;;;;;;;7.88;1.45;;;21.50;99.90;;;;;;5066936;28;20410;-76
2022/03/15 08:36:14;;;;;;;8.37;1.50;;;21.50;99.90;;;;;;5031199;28;20362;-84
2022/03/15 08:38:41;;;;;;;6.07;1.70;;;21.40;99.90;;;;;;5067284;28;20418;-78
2022/03/15 08:41:08;;;;;;;8.73;1.70;;;21.30;99.90;;;;;;5044039;28;20386;-83
2022/03/15 08:43:36;;;;;;;10.95;1.70;;;21.20;99.90;;;;;;5066660;28;20853;-78
2022/03/15 08:46:03;;;;;;;10.70;1.80;;;21.20;99.90;;;;;;5058698;28;20471;-76
2022/03/15 08:48:30;;;;;;;7.90;1.70;;;21.20;99.90;;;;;;5063426;28;20408;-77
2022/03/15 08:51:00;;;;;;;11.65;1.80;;;21.10;99.90;;;;;;5066391;28;20473;-76
2022/03/15 08:53:32;;;;;;;9.40;1.80;;;21.10;99.90;;;;;;5066604;28;20427;-85
2022/03/15 08:55:59;;;;;;;10.73;1.80;;;21.00;99.90;;;;;;5065811;28;20500;-83
2022/03/15 08:58:26;;;;;;;7.93;1.67;;;20.90;99.90;;;;;;5066606;28;21011;-81
2022/03/15 09:00:54;;;;;;;8.82;1.80;;;20.90;99.90;;;;;;5066439;28;20484;-80
2022/03/15 09:03:22;;;;;;;6.90;1.60;;;20.80;99.90;;;;;;5066184;28;20390;-78
2022/03/15 09:05:49;;;;;;;7.97;1.67;;;20.80;99.90;;;;;;5066157;28;20784;-84
2022/03/15 09:08:16;;;;;;;8.00;1.80;;;20.70;99.90;;;;;;5067069;28;20393;-76
2022/03/15 09:10:45;;;;;;;12.00;2.00;;;20.70;99.90;;;;;;5065702;28;20472;-76
2022/03/15 09:13:12;;;;;;;6.70;1.70;;;20.70;99.90;;;;;;5062102;28;20785;-83
2022/03/15 09:15:39;;;;;;;10.67;1.73;;;20.60;99.90;;;;;;5067159;28;20508;-81
2022/03/15 09:18:07;;;;;;;8.10;1.60;;;20.60;99.90;;;;;;5069291;28;20397;-77
2022/03/15 09:20:34;;;;;;;10.95;1.95;;;20.60;99.90;;;;;;5070682;28;20389;-80
2022/03/15 09:23:02;;;;;;;9.98;2.00;;;20.50;99.90;;;;;;5070500;28;20447;-81
2022/03/15 09:25:32;;;;;;;7.38;1.55;;;20.50;99.90;;;;;;5070665;28;20520;-82
2022/03/15 09:27:59;;;;;;;11.23;2.00;;;20.50;99.90;;;;;;5070662;28;20411;-84
2022/03/15 09:30:30;;;;;;;9.05;1.83;;;20.50;99.90;;;;;;5068272;28;20733;-82
2022/03/15 09:32:58;;;;;;;7.85;1.60;;;20.50;99.90;;;;;;5050690;28;20462;-77
2022/03/15 09:35:25;;;;;;;7.22;1.95;;;20.40;99.90;;;;;;5050495;28;20375;-86
2022/03/15 09:37:53;;;;;;;6.47;1.83;;;20.40;99.90;;;;;;5055179;28;20386;-76
2022/03/15 09:40:25;;;;;;;7.50;1.70;;;20.30;99.90;;;;;;5070729;28;20374;-82
2022/03/15 09:42:59;;;;;;;7.30;1.60;;;20.30;99.90;;;;;;5069666;28;20401;-80
2022/03/15 09:45:33;;;;;;;7.33;1.60;;;20.30;99.90;;;;;;5056503;28;20388;-80
2022/03/15 09:48:03;;;;;;;9.32;1.67;;;20.30;99.90;;;;;;5070517;28;20384;-80
2022/03/15 09:50:31;;;;;;;6.47;1.80;;;20.30;99.90;;;;;;5069775;28;20385;-79
2022/03/15 09:52:59;;;;;;;9.13;2.00;;;20.30;99.90;;;;;;5065345;28;20424;-78
2022/03/15 09:55:27;;;;;;;10.68;2.10;;;20.30;99.90;;;;;;5069999;28;20385;-82
2022/03/15 09:57:55;;;;;;;9.25;1.80;;;20.30;99.90;;;;;;5051815;28;20374;-77
2022/03/15 10:00:22;;;;;;;10.13;2.23;;;20.20;99.90;;;;;;5068870;28;20401;-81
2022/03/15 10:02:49;;;;;;;12.17;2.13;;;20.20;99.90;;;;;;5070704;28;20385;-79
2022/03/15 10:05:16;;;;;;;12.35;2.20;;;20.10;99.90;;;;;;5070310;28;20472;-79
2022/03/15 10:07:43;;;;;;;18.27;2.67;;;20.10;99.90;;;;;;5061923;28;20399;-81
2022/03/15 10:10:16;;;;;;;12.30;2.45;;;20.00;99.90;;;;;;5063283;28;20378;-82
2022/03/15 10:12:43;;;;;;;15.95;2.40;;;19.90;99.90;;;;;;5069120;28;20401;-78
2022/03/15 10:15:16;;;;;;;17.77;2.78;;;19.80;99.90;;;;;;5065061;28;20870;-80
2022/03/15 10:18:06;;;;;;;14.60;2.75;;;19.70;99.90;;;;;;5070032;28;20386;-81
2022/03/15 10:20:42;;;;;;;12.82;3.13;;;19.60;99.90;;;;;;5069170;28;20386;-83
2022/03/15 10:23:10;;;;;;;14.18;2.88;;;19.50;99.90;;;;;;5070409;28;20870;-89
2022/03/15 10:25:41;;;;;;;12.65;2.80;;;19.50;99.90;;;;;;5068199;28;20397;-90
2022/03/15 10:28:09;;;;;;;12.60;2.60;;;19.50;99.90;;;;;;5069390;28;20369;-79
2022/03/15 10:30:37;;;;;;;11.73;2.70;;;19.40;99.90;;;;;;5069811;28;20915;-79
2022/03/15 10:33:08;;;;;;;10.23;2.20;;;19.50;99.90;;;;;;5069310;28;20382;-83
2022/03/15 10:35:46;;;;;;;12.88;2.58;;;19.50;99.90;;;;;;5069847;28;20378;-78
2022/03/15 10:38:14;;;;;;;11.90;2.28;;;19.50;99.90;;;;;;5057040;28;20781;-80
2022/03/15 10:40:47;;;;;;;12.95;2.38;;;19.50;99.90;;;;;;5059669;28;20437;-86
2022/03/15 10:43:23;;;;;;;11.23;2.20;;;19.50;99.90;;;;;;5067864;28;20374;-77
2022/03/15 10:45:56;;;;;;;10.35;2.20;;;19.50;99.90;;;;;;5041199;28;20367;-83
2022/03/15 10:48:24;;;;;;;9.67;2.07;;;19.60;99.90;;;;;;5054349;28;20388;-83
2022/03/15 10:50:59;;;;;;;9.80;2.20;;;19.50;99.90;;;;;;5068823;28;20844;-86
2022/03/15 10:53:38;;;;;;;11.15;2.60;;;19.50;99.90;;;;;;5061443;28;20418;-82
2022/03/15 10:56:17;;;;;;;11.13;2.20;;;19.50;99.90;;;;;;5062789;28;20410;-85
2022/03/15 10:58:49;;;;;;;11.10;2.40;;;19.40;99.90;;;;;;5058026;28;20409;-85
2022/03/15 11:01:27;;;;;;;12.57;2.33;;;19.30;99.90;;;;;;5062485;28;20417;-78
2022/03/15 11:03:59;;;;;;;13.88;2.50;;;19.30;99.90;;;;;;5061232;28;20778;-76
2022/03/15 11:06:40;;;;;;;10.88;2.30;;;19.20;99.90;;;;;;5067838;28;20412;-78
2022/03/15 11:09:28;;;;;;;14.88;2.60;;;19.20;99.90;;;;;;5068588;28;20382;-85
2022/03/15 11:12:00;;;;;;;15.43;2.72;;;19.20;99.90;;;;;;5060210;28;20453;-88
2022/03/15 11:14:46;;;;;;;23.45;3.10;;;19.30;99.90;;;;;;5046380;28;20412;-80
2022/03/15 11:17:21;;;;;;;15.68;2.60;;;19.20;99.90;;;;;;5056783;28;20371;-82
2022/03/15 11:19:53;;;;;;;19.52;3.00;;;19.30;99.90;;;;;;5068667;28;20463;-83
2022/03/15 11:22:23;;;;;;;17.55;2.92;;;19.30;99.90;;;;;;5068765;28;20378;-83
2022/03/15 11:25:12;;;;;;;13.98;3.08;;;19.30;99.90;;;;;;5066415;28;20553;-79
2022/03/15 11:27:41;;;;;;;19.33;3.05;;;19.20;99.90;;;;;;5068251;28;20491;-82
2022/03/15 11:30:16;;;;;;;17.35;2.70;;;19.20;99.90;;;;;;5068955;28;20378;-87
2022/03/15 11:32:47;;;;;;;11.40;2.60;;;19.20;99.90;;;;;;5060254;28;20374;-84
2022/03/15 11:35:19;;;;;;;13.23;2.65;;;19.20;99.90;;;;;;5049129;28;20752;-78
2022/03/15 11:37:47;;;;;;;13.38;2.42;;;19.20;99.90;;;;;;5062856;28;20865;-81
2022/03/15 11:40:17;;;;;;;15.80;2.50;;;19.10;99.90;;;;;;5043429;28;20763;-82
2022/03/15 11:42:47;;;;;;;12.88;2.58;;;19.00;99.90;;;;;;5071239;28;20370;-75
2022/03/15 11:45:23;;;;;;;14.95;2.45;;;19.00;99.90;;;;;;5069334;28;20457;-84
2022/03/15 11:47:58;;;;;;;11.07;2.30;;;19.00;99.90;;;;;;5062426;28;20757;-77
2022/03/15 11:50:37;;;;;;;12.20;2.50;;;19.00;99.90;;;;;;5065024;28;20409;-87
2022/03/15 11:53:15;;;;;;;16.35;2.55;;;19.10;99.90;;;;;;5067729;28;20393;-77
2022/03/15 11:56:14;;;;;;;13.57;2.70;;;19.10;99.90;;;;;;5062436;28;20390;-83
2022/03/15 11:58:53;;;;;;;12.65;2.60;;;19.10;99.90;;;;;;4990918;28;20801;-81
2022/03/15 12:01:22;;;;;;;13.27;2.70;;;19.20;99.90;;;;;;4987509;28;20440;-88
2022/03/15 12:03:58;;;;;;;12.57;2.70;;;19.10;99.90;;;;;;4990003;28;20463;-83
2022/03/15 12:06:26;;;;;;;15.18;2.80;;;19.10;99.90;;;;;;4993534;28;20909;-84
2022/03/15 12:08:58;;;;;;;13.02;2.70;;;19.10;99.90;;;;;;4994858;28;20777;-78
2022/03/15 12:11:43;;;;;;;14.88;2.50;;;19.10;99.90;;;;;;4964425;28;20489;-80
2022/03/15 12:14:13;;;;;;;13.70;2.38;;;19.10;99.90;;;;;;4982476;28;20404;-80
2022/03/15 12:16:51;;;;;;;15.73;2.80;;;19.20;99.90;;;;;;4982933;28;20396;-78
2022/03/15 12:19:37;;;;;;;14.80;2.70;;;19.30;99.90;;;;;;4992420;28;20420;-76
2022/03/15 12:22:09;;;;;;;14.20;2.83;;;19.30;99.90;;;;;;4989379;28;20438;-79
2022/03/15 12:24:46;;;;;;;7.43;1.70;;;19.30;99.90;;;;;;4991693;28;20404;-77
2022/03/15 12:27:20;;;;;;;6.13;1.73;;;19.40;99.90;;;;;;4991891;28;20863;-85
2022/03/15 12:29:54;;;;;;;5.77;1.40;;;19.50;99.90;;;;;;4996998;28;20451;-87
2022/03/15 12:32:22;;;;;;;8.10;1.85;;;19.60;99.90;;;;;;5000964;28;20399;-87
2022/03/15 12:34:55;;;;;;;7.53;1.50;;;19.60;99.90;;;;;;5018017;28;20394;-79
2022/03/15 12:37:31;;;;;;;6.97;1.30;;;19.70;99.90;;;;;;5049638;28;20387;-81
2022/03/15 12:39:59;;;;;;;5.18;1.10;;;19.80;99.90;;;;;;5065611;28;20501;-81
2022/03/15 12:42:27;;;;;;;4.80;1.30;;;19.80;99.90;;;;;;5065927;28;20386;-81
2022/03/15 12:45:00;;;;;;;5.00;1.63;;;19.70;99.90;;;;;;5055386;28;20388;-88
2022/03/15 12:47:32;;;;;;;4.32;1.17;;;19.60;99.90;;;;;;5063937;28;20403;-77
2022/03/15 12:50:18;;;;;;;5.30;1.38;;;19.60;99.90;;;;;;5060313;28;20374;-84
2022/03/15 12:52:46;;;;;;;6.25;1.30;;;19.60;99.90;;;;;;5066249;28;20409;-86
2022/03/15 12:55:18;;;;;;;5.10;1.50;;;19.60;99.90;;;;;;5065644;28;20451;-86